createdAt,value
2018-01-26T00:01:06.890Z,8.17
2018-01-26T00:03:35.307Z,9.80
2018-01-26T00:06:03.887Z,8.97
2018-01-26T00:08:32.265Z,9.40
2018-01-26T00:11:00.684Z,8.80
2018-01-26T00:13:29.102Z,9.63
2018-01-26T00:15:57.482Z,8.80
2018-01-26T00:18:25.866Z,9.70
2018-01-26T00:20:54.382Z,11.40
2018-01-26T00:23:22.870Z,11.93
2018-01-26T00:25:51.310Z,11.37
2018-01-26T00:28:19.750Z,11.00
2018-01-26T00:30:48.179Z,9.67
2018-01-26T00:33:16.573Z,8.23
2018-01-26T00:35:45.089Z,8.63
2018-01-26T00:38:13.503Z,7.23
2018-01-26T00:40:41.892Z,7.60
2018-01-26T00:43:10.324Z,7.10
2018-01-26T00:45:38.715Z,7.40
2018-01-26T00:48:07.089Z,7.70
2018-01-26T00:50:35.628Z,7.07
2018-01-26T00:53:04.012Z,6.63
2018-01-26T00:55:32.457Z,6.33
2018-01-26T00:58:00.927Z,5.80
2018-01-26T01:00:29.421Z,5.40
2018-01-26T01:02:57.814Z,4.93
2018-01-26T01:05:26.293Z,5.77
2018-01-26T01:07:54.677Z,4.57
2018-01-26T01:10:23.086Z,4.60
2018-01-26T01:12:51.560Z,4.00
2018-01-26T01:15:19.959Z,4.77
2018-01-26T01:17:48.349Z,4.63
2018-01-26T01:20:16.792Z,3.87
2018-01-26T01:22:45.185Z,4.07
2018-01-26T01:25:13.562Z,3.67
2018-01-26T01:27:41.984Z,4.33
2018-01-26T01:30:10.359Z,3.70
2018-01-26T01:32:38.731Z,4.03
2018-01-26T01:35:07.145Z,4.07
2018-01-26T01:37:35.514Z,3.83
2018-01-26T01:40:03.921Z,3.50
2018-01-26T01:42:32.344Z,3.23
2018-01-26T01:45:00.730Z,2.80
2018-01-26T01:47:29.107Z,2.77
2018-01-26T01:49:57.743Z,3.27
2018-01-26T01:52:26.150Z,2.80
2018-01-26T01:54:54.530Z,2.43
2018-01-26T01:57:22.948Z,2.30
2018-01-26T01:59:51.369Z,2.93
2018-01-26T02:02:19.740Z,3.10
2018-01-26T02:04:48.165Z,2.73
2018-01-26T02:07:16.567Z,2.27
2018-01-26T02:09:44.945Z,2.73
2018-01-26T02:12:13.400Z,3.03
2018-01-26T02:14:41.819Z,2.87
2018-01-26T02:17:10.302Z,3.53
2018-01-26T02:19:38.864Z,3.23
2018-01-26T02:22:07.247Z,3.20
2018-01-26T02:24:35.651Z,3.57
2018-01-26T02:27:04.078Z,3.50
2018-01-26T02:29:32.444Z,3.30
2018-01-26T02:32:00.831Z,3.33
2018-01-26T02:34:29.246Z,3.60
2018-01-26T02:36:57.631Z,3.30
2018-01-26T02:39:26.014Z,3.17
2018-01-26T02:41:54.441Z,3.10
2018-01-26T02:44:22.836Z,2.90
2018-01-26T02:46:51.210Z,3.33
2018-01-26T02:49:19.637Z,3.57
2018-01-26T02:51:48.036Z,4.70
2018-01-26T02:54:16.495Z,4.07
2018-01-26T02:56:45.102Z,3.90
2018-01-26T02:59:13.501Z,4.83
2018-01-26T03:01:41.898Z,4.70
2018-01-26T03:04:10.327Z,3.70
2018-01-26T03:06:38.710Z,3.90
2018-01-26T03:09:07.206Z,4.33
2018-01-26T03:11:35.680Z,4.37
2018-01-26T03:14:04.112Z,4.27
2018-01-26T03:16:32.509Z,3.53
2018-01-26T03:19:00.948Z,4.07
2018-01-26T03:21:29.344Z,4.03
2018-01-26T03:23:57.731Z,3.73
2018-01-26T03:26:26.163Z,4.23
2018-01-26T03:28:54.543Z,4.30
2018-01-26T03:31:22.914Z,3.87
2018-01-26T03:33:51.364Z,5.10
2018-01-26T03:36:19.744Z,4.20
2018-01-26T03:38:48.110Z,4.33
2018-01-26T03:41:16.536Z,4.03
2018-01-26T03:43:44.914Z,4.53
2018-01-26T03:46:13.285Z,4.70
2018-01-26T03:48:41.720Z,4.63
2018-01-26T03:51:10.089Z,4.53
2018-01-26T03:53:38.456Z,4.90
2018-01-26T03:56:06.886Z,4.77
2018-01-26T03:58:35.287Z,5.10
2018-01-26T04:01:03.679Z,5.07
2018-01-26T04:03:32.136Z,5.33
2018-01-26T04:06:00.514Z,4.33
2018-01-26T04:08:28.906Z,4.47
2018-01-26T04:10:57.333Z,5.53
2018-01-26T04:13:25.722Z,5.77
2018-01-26T04:15:54.112Z,4.67
2018-01-26T04:18:22.526Z,4.50
2018-01-26T04:20:50.914Z,5.33
2018-01-26T04:23:19.289Z,5.77
2018-01-26T04:25:47.728Z,5.43
2018-01-26T04:28:16.122Z,5.80
2018-01-26T04:30:44.549Z,6.30
2018-01-26T04:33:12.969Z,5.30
2018-01-26T04:35:41.341Z,6.00
2018-01-26T04:38:09.736Z,6.30
2018-01-26T04:40:38.144Z,6.93
2018-01-26T04:43:06.545Z,5.40
2018-01-26T04:45:34.940Z,6.00
2018-01-26T04:48:03.392Z,5.93
2018-01-26T04:50:31.818Z,5.00
2018-01-26T04:53:00.220Z,6.67
2018-01-26T04:55:28.653Z,7.70
2018-01-26T04:57:57.059Z,6.73
2018-01-26T05:00:25.496Z,11.53
2018-01-26T05:02:53.933Z,8.40
2018-01-26T05:05:22.324Z,7.20
2018-01-26T05:07:50.694Z,7.90
2018-01-26T05:10:19.125Z,7.87
2018-01-26T05:12:47.516Z,7.70
2018-01-26T05:15:15.901Z,7.30
2018-01-26T05:17:44.352Z,7.40
2018-01-26T05:20:12.733Z,8.00
2018-01-26T05:22:41.132Z,7.63
2018-01-26T05:25:09.562Z,8.37
2018-01-26T05:27:37.969Z,12.60
2018-01-26T05:30:06.354Z,20.03
2018-01-26T05:32:34.792Z,19.77
2018-01-26T05:35:03.207Z,15.03
2018-01-26T05:37:31.594Z,12.57
2018-01-26T05:40:00.040Z,15.40
2018-01-26T05:42:28.444Z,21.67
2018-01-26T05:44:56.839Z,20.83
2018-01-26T05:47:25.304Z,21.53
2018-01-26T05:49:53.692Z,14.57
2018-01-26T05:52:22.093Z,10.97
2018-01-26T05:54:50.709Z,11.17
2018-01-26T05:57:19.113Z,20.23
2018-01-26T05:59:47.524Z,16.17
2018-01-26T06:02:15.998Z,9.60
2018-01-26T06:04:44.415Z,10.27
2018-01-26T06:07:12.813Z,8.77
2018-01-26T06:09:41.269Z,8.10
2018-01-26T06:12:09.733Z,7.03
2018-01-26T06:14:38.129Z,6.57
2018-01-26T06:17:06.593Z,8.17
2018-01-26T06:19:34.998Z,7.60
2018-01-26T06:22:03.413Z,7.27
2018-01-26T06:24:31.892Z,7.70
2018-01-26T06:27:00.317Z,10.07
2018-01-26T06:29:28.738Z,10.50
2018-01-26T06:31:57.160Z,14.00
2018-01-26T06:34:25.565Z,13.53
2018-01-26T06:36:53.970Z,12.30
2018-01-26T06:39:22.436Z,10.40
2018-01-26T06:41:50.853Z,10.10
2018-01-26T06:44:19.250Z,9.43
2018-01-26T06:46:47.688Z,11.17
2018-01-26T06:49:16.092Z,10.63
2018-01-26T06:51:44.502Z,12.10
2018-01-26T06:54:12.973Z,15.10
2018-01-26T06:56:41.361Z,11.63
2018-01-26T06:59:09.741Z,10.20
2018-01-26T07:01:38.194Z,9.50
2018-01-26T07:04:06.584Z,8.70
2018-01-26T07:06:34.985Z,7.90
2018-01-26T07:09:03.481Z,8.50
2018-01-26T07:11:31.936Z,8.67
2018-01-26T07:14:00.320Z,7.20
2018-01-26T07:16:28.752Z,8.20
2018-01-26T07:18:57.133Z,7.67
2018-01-26T07:21:25.524Z,7.77
2018-01-26T07:23:53.972Z,8.00
2018-01-26T07:26:22.346Z,8.53
2018-01-26T07:28:50.725Z,8.60
2018-01-26T07:31:19.161Z,8.10
2018-01-26T07:33:47.550Z,7.63
2018-01-26T07:36:15.929Z,7.97
2018-01-26T07:38:44.349Z,7.80
2018-01-26T07:41:12.740Z,7.83
2018-01-26T07:43:41.121Z,7.53
2018-01-26T07:46:09.549Z,8.27
2018-01-26T07:48:37.940Z,7.80
2018-01-26T07:51:06.329Z,7.20
2018-01-26T07:53:34.753Z,8.60
2018-01-26T07:56:03.149Z,7.50
2018-01-26T07:58:31.525Z,7.53
2018-01-26T08:01:00.918Z,7.47
2018-01-26T08:03:29.297Z,7.87
2018-01-26T08:05:57.687Z,7.90
2018-01-26T08:08:26.173Z,7.97
2018-01-26T08:10:54.596Z,7.77
2018-01-26T08:13:22.996Z,10.50
2018-01-26T08:15:51.425Z,10.00
2018-01-26T08:18:19.824Z,11.33
2018-01-26T08:20:48.209Z,9.57
2018-01-26T08:23:16.627Z,7.53
2018-01-26T08:25:45.024Z,8.87
2018-01-26T08:28:13.403Z,7.70
2018-01-26T08:30:41.856Z,7.80
2018-01-26T08:33:10.241Z,9.63
2018-01-26T08:35:38.622Z,10.57
2018-01-26T08:38:07.047Z,11.23
2018-01-26T08:40:35.521Z,9.40
2018-01-26T08:43:04.304Z,10.73
2018-01-26T08:45:32.764Z,11.27
2018-01-26T08:48:01.166Z,9.90
2018-01-26T08:50:29.568Z,11.37
2018-01-26T08:52:58.057Z,10.53
2018-01-26T08:55:26.506Z,10.57
2018-01-26T08:57:54.962Z,11.57
2018-01-26T09:00:23.421Z,10.10
2018-01-26T09:02:51.833Z,7.47
2018-01-26T09:05:20.217Z,8.53
2018-01-26T09:07:48.652Z,8.20
2018-01-26T09:10:17.058Z,8.87
2018-01-26T09:12:45.437Z,7.60
2018-01-26T09:15:13.877Z,8.57
2018-01-26T09:17:42.262Z,8.63
2018-01-26T09:20:10.660Z,9.20
2018-01-26T09:22:39.125Z,9.37
2018-01-26T09:25:07.514Z,9.10
2018-01-26T09:27:35.921Z,9.20
2018-01-26T09:30:04.439Z,8.27
2018-01-26T09:32:32.857Z,9.67
2018-01-26T09:35:01.257Z,9.33
2018-01-26T09:37:29.708Z,9.87
2018-01-26T09:39:58.093Z,9.57
2018-01-26T09:42:26.514Z,9.20
2018-01-26T09:44:54.946Z,9.43
2018-01-26T09:47:23.330Z,9.10
2018-01-26T09:49:51.741Z,9.70
2018-01-26T09:52:20.165Z,10.10
2018-01-26T09:54:48.566Z,10.47
2018-01-26T09:57:16.961Z,11.50
2018-01-26T09:59:45.417Z,10.00
2018-01-26T10:02:13.832Z,10.30
2018-01-26T10:04:42.255Z,10.10
2018-01-26T10:07:10.705Z,11.50
2018-01-26T10:09:39.120Z,9.93
2018-01-26T10:12:07.532Z,11.23
2018-01-26T10:14:35.996Z,11.27
2018-01-26T10:17:04.387Z,12.23
2018-01-26T10:19:32.790Z,14.13
2018-01-26T10:22:01.238Z,12.10
2018-01-26T10:24:29.648Z,13.37
2018-01-26T10:26:58.048Z,13.37
2018-01-26T10:29:26.489Z,13.37
2018-01-26T10:31:54.877Z,12.77
2018-01-26T10:34:23.284Z,13.37
2018-01-26T10:36:51.753Z,14.83
2018-01-26T10:39:20.161Z,12.43
2018-01-26T10:41:48.577Z,12.47
2018-01-26T10:44:17.098Z,13.37
2018-01-26T10:46:45.466Z,15.37
2018-01-26T10:49:13.876Z,15.07
2018-01-26T10:51:42.340Z,13.43
2018-01-26T10:54:10.736Z,13.40
2018-01-26T10:56:39.144Z,14.20
2018-01-26T10:59:07.592Z,15.77
2018-01-26T11:01:36.004Z,15.43
2018-01-26T11:04:04.405Z,16.83
2018-01-26T11:06:32.856Z,16.00
2018-01-26T11:09:01.276Z,17.57
2018-01-26T11:11:29.685Z,17.20
2018-01-26T11:13:58.123Z,17.87
2018-01-26T11:16:26.517Z,17.63
2018-01-26T11:18:54.909Z,15.33
2018-01-26T11:21:23.376Z,16.50
2018-01-26T11:23:51.774Z,16.33
2018-01-26T11:26:20.188Z,14.90
2018-01-26T11:28:48.623Z,14.97
2018-01-26T11:31:17.022Z,11.40
2018-01-26T11:33:45.414Z,12.87
2018-01-26T11:36:13.865Z,12.13
2018-01-26T11:38:42.270Z,12.87
2018-01-26T11:41:10.677Z,13.60
2018-01-26T11:43:39.128Z,14.07
2018-01-26T11:46:07.560Z,14.07
2018-01-26T11:48:35.972Z,14.57
2018-01-26T11:51:04.438Z,15.17
2018-01-26T11:53:32.835Z,15.53
2018-01-26T11:56:01.224Z,16.03
2018-01-26T11:58:29.678Z,14.63
2018-01-26T12:00:58.107Z,16.23
2018-01-26T12:03:26.528Z,14.60
2018-01-26T12:05:54.977Z,17.17
2018-01-26T12:08:23.387Z,15.43
2018-01-26T12:10:51.778Z,15.37
2018-01-26T12:13:20.222Z,14.43
2018-01-26T12:15:48.645Z,13.07
2018-01-26T12:18:17.033Z,14.30
2018-01-26T12:20:45.457Z,15.07
2018-01-26T12:23:13.866Z,14.80
2018-01-26T12:25:42.318Z,15.63
2018-01-26T12:28:10.818Z,15.30
2018-01-26T12:30:39.263Z,15.30
2018-01-26T12:33:07.664Z,16.40
2018-01-26T12:35:36.106Z,15.70
2018-01-26T12:38:04.522Z,13.70
2018-01-26T12:40:32.936Z,15.43
2018-01-26T12:43:01.404Z,15.80
2018-01-26T12:45:29.826Z,16.47
2018-01-26T12:47:58.254Z,17.60
2018-01-26T12:50:26.702Z,18.50
2018-01-26T12:52:55.138Z,18.07
2018-01-26T12:55:23.561Z,17.20
2018-01-26T12:57:52.012Z,15.93
2018-01-26T13:00:20.438Z,17.77
2018-01-26T13:02:48.833Z,18.30
2018-01-26T13:05:17.305Z,16.77
2018-01-26T13:07:45.712Z,19.60
2018-01-26T13:10:14.140Z,17.37
2018-01-26T13:12:42.602Z,17.17
2018-01-26T13:15:11.817Z,17.87
2018-01-26T13:17:40.205Z,18.47
2018-01-26T13:20:08.692Z,18.83
2018-01-26T13:22:37.108Z,18.27
2018-01-26T13:25:05.521Z,18.30
2018-01-26T13:27:33.975Z,17.93
2018-01-26T13:30:02.392Z,18.10
2018-01-26T13:32:30.785Z,16.97
2018-01-26T13:34:59.244Z,18.00
2018-01-26T13:37:27.637Z,18.17
2018-01-26T13:39:56.054Z,19.77
2018-01-26T13:42:24.548Z,19.97
2018-01-26T13:44:52.961Z,19.90
2018-01-26T13:47:21.355Z,20.47
2018-01-26T13:49:49.791Z,20.00
2018-01-26T13:52:18.213Z,18.10
2018-01-26T13:54:46.613Z,20.23
2018-01-26T13:57:15.089Z,20.57
2018-01-26T13:59:43.521Z,18.67
2018-01-26T14:02:11.950Z,19.17
2018-01-26T14:04:40.390Z,19.83
2018-01-26T14:07:08.796Z,21.27
2018-01-26T14:09:37.198Z,19.47
2018-01-26T14:12:05.637Z,20.40
2018-01-26T14:14:34.055Z,19.60
2018-01-26T14:17:02.469Z,19.67
2018-01-26T14:19:31.150Z,19.67
2018-01-26T14:21:59.578Z,18.57
2018-01-26T14:24:27.993Z,17.93
2018-01-26T14:26:56.643Z,17.83
2018-01-26T14:29:25.062Z,17.53
2018-01-26T14:31:53.466Z,17.73
2018-01-26T14:34:21.954Z,18.53
2018-01-26T14:36:50.350Z,18.13
2018-01-26T14:39:18.746Z,17.93
2018-01-26T14:41:47.205Z,18.00
2018-01-26T14:44:15.620Z,17.20
2018-01-26T14:46:44.020Z,16.83
2018-01-26T14:49:12.486Z,16.10
2018-01-26T14:51:40.889Z,16.10
2018-01-26T14:54:09.300Z,15.27
2018-01-26T14:56:37.725Z,16.13
2018-01-26T14:59:06.141Z,15.87
2018-01-26T15:01:34.553Z,15.77
2018-01-26T15:04:03.065Z,17.37
2018-01-26T15:06:31.481Z,15.50
2018-01-26T15:09:00.052Z,15.67
2018-01-26T15:11:28.790Z,16.97
2018-01-26T15:13:57.186Z,16.33
2018-01-26T15:16:25.593Z,17.63
2018-01-26T15:18:54.032Z,18.23
2018-01-26T15:21:22.435Z,18.60
2018-01-26T15:23:50.881Z,18.17
2018-01-26T15:26:19.333Z,19.53
2018-01-26T15:28:47.766Z,17.43
2018-01-26T15:31:16.159Z,18.73
2018-01-26T15:33:44.629Z,20.23
2018-01-26T15:36:13.031Z,18.43
2018-01-26T15:38:41.445Z,19.10
2018-01-26T15:41:09.919Z,17.07
2018-01-26T15:43:38.346Z,19.33
2018-01-26T15:46:06.756Z,18.57
2018-01-26T15:48:35.208Z,18.93
2018-01-26T15:51:03.613Z,18.30
2018-01-26T15:53:32.043Z,18.50
2018-01-26T15:56:00.482Z,19.03
2018-01-26T15:58:28.903Z,18.23
2018-01-26T16:00:57.316Z,19.10
2018-01-26T16:03:25.765Z,18.53
2018-01-26T16:05:54.167Z,19.27
2018-01-26T16:08:22.609Z,18.87
2018-01-26T16:10:51.049Z,20.23
2018-01-26T16:13:19.446Z,19.13
2018-01-26T16:15:59.585Z,18.40
2018-01-26T16:18:27.975Z,18.37
2018-01-26T16:20:56.373Z,19.20
2018-01-26T16:23:24.831Z,19.43
2018-01-26T16:25:53.226Z,19.00
2018-01-26T16:28:21.613Z,20.03
2018-01-26T16:30:50.078Z,20.50
2018-01-26T16:33:18.507Z,20.37
2018-01-26T16:35:46.906Z,20.33
2018-01-26T16:38:15.334Z,21.53
2018-01-26T16:40:43.748Z,20.97
2018-01-26T16:43:12.177Z,21.03
2018-01-26T16:45:40.638Z,20.93
2018-01-26T16:48:09.078Z,20.93
2018-01-26T16:50:37.475Z,22.47
2018-01-26T16:53:05.914Z,22.30
2018-01-26T16:55:34.345Z,21.87
2018-01-26T16:58:02.747Z,20.63
2018-01-26T17:00:31.208Z,20.63
2018-01-26T17:02:59.597Z,19.50
2018-01-26T17:05:28.019Z,20.80
2018-01-26T17:07:56.465Z,21.07
2018-01-26T17:10:24.876Z,20.87
2018-01-26T17:12:53.296Z,21.73
2018-01-26T17:15:21.748Z,19.90
2018-01-26T17:17:50.143Z,19.83
2018-01-26T17:20:18.534Z,18.47
2018-01-26T17:22:47.200Z,18.10
2018-01-26T17:25:15.615Z,19.07
2018-01-26T17:27:44.049Z,19.77
2018-01-26T17:30:12.505Z,18.30
2018-01-26T17:32:40.898Z,19.53
2018-01-26T17:35:09.313Z,19.00
2018-01-26T17:37:37.762Z,19.27
2018-01-26T17:40:06.166Z,18.57
2018-01-26T17:42:34.564Z,18.27
2018-01-26T17:45:03.014Z,18.83
2018-01-26T17:47:31.409Z,19.33
2018-01-26T17:49:59.808Z,21.87
2018-01-26T17:52:28.417Z,21.40
2018-01-26T17:54:56.857Z,22.30
2018-01-26T17:57:25.252Z,20.50
2018-01-26T17:59:53.718Z,19.33
2018-01-26T18:02:22.161Z,20.00
2018-01-26T18:04:50.653Z,21.20
2018-01-26T18:07:19.169Z,20.77
2018-01-26T18:09:47.582Z,21.37
2018-01-26T18:12:15.970Z,19.97
2018-01-26T18:14:44.422Z,22.40
2018-01-26T18:17:12.840Z,22.50
2018-01-26T18:19:41.230Z,23.77
2018-01-26T18:22:09.695Z,22.33
2018-01-26T18:24:38.095Z,23.60
2018-01-26T18:27:06.513Z,22.97
2018-01-26T18:29:35.161Z,23.37
2018-01-26T18:32:03.567Z,24.27
2018-01-26T18:34:32.010Z,24.47
2018-01-26T18:37:01.500Z,24.87
2018-01-26T18:39:29.897Z,25.90
2018-01-26T18:41:58.316Z,24.97
2018-01-26T18:44:26.968Z,26.33
2018-01-26T18:46:55.401Z,27.30
2018-01-26T18:49:23.837Z,24.23
2018-01-26T18:51:52.312Z,28.23
2018-01-26T18:54:20.705Z,28.43
2018-01-26T18:56:49.118Z,27.40
2018-01-26T18:59:17.586Z,28.23
2018-01-26T19:01:45.985Z,29.67
2018-01-26T19:04:14.385Z,29.47
2018-01-26T19:06:42.841Z,28.57
2018-01-26T19:09:11.248Z,29.30
2018-01-26T19:11:39.675Z,31.33
2018-01-26T19:14:08.136Z,29.40
2018-01-26T19:16:36.562Z,29.60
2018-01-26T19:19:04.993Z,29.00
2018-01-26T19:21:33.637Z,27.83
2018-01-26T19:24:02.042Z,26.27
2018-01-26T19:26:30.473Z,25.03
2018-01-26T19:28:58.964Z,27.03
2018-01-26T19:31:27.371Z,27.33
2018-01-26T19:33:55.801Z,27.17
2018-01-26T19:36:24.267Z,28.73
2018-01-26T19:38:52.685Z,31.27
2018-01-26T19:41:21.178Z,27.87
2018-01-26T19:43:49.845Z,28.17
2018-01-26T19:46:18.243Z,27.57
2018-01-26T19:48:46.642Z,27.47
2018-01-26T19:51:15.078Z,26.10
2018-01-26T19:53:43.500Z,26.30
2018-01-26T19:56:11.910Z,25.07
2018-01-26T19:58:40.347Z,26.07
2018-01-26T20:01:08.790Z,28.03
2018-01-26T20:03:37.206Z,26.33
2018-01-26T20:09:23.866Z,27.07
2018-01-26T20:11:57.970Z,25.17
2018-01-26T20:14:26.388Z,25.40
2018-01-26T20:16:54.817Z,27.37
2018-01-26T20:19:23.303Z,26.37
2018-01-26T20:21:51.724Z,26.67
2018-01-26T20:24:20.171Z,23.23
2018-01-26T20:26:48.633Z,22.53
2018-01-26T20:29:17.049Z,24.20
2018-01-26T20:31:45.490Z,24.70
2018-01-26T20:34:13.965Z,24.50
2018-01-26T20:36:42.370Z,23.67
2018-01-26T20:39:10.775Z,21.93
2018-01-26T20:41:39.237Z,22.93
2018-01-26T20:44:07.629Z,22.47
2018-01-26T20:46:36.013Z,24.73
2018-01-26T20:49:04.449Z,25.13
2018-01-26T20:51:32.842Z,23.87
2018-01-26T20:54:01.285Z,23.67
2018-01-26T20:56:29.967Z,25.57
2018-01-26T20:58:58.397Z,25.30
2018-01-26T21:01:26.790Z,24.33
2018-01-26T21:03:55.256Z,25.17
2018-01-26T21:06:23.660Z,23.77
2018-01-26T21:08:52.055Z,23.90
2018-01-26T21:11:20.501Z,23.77
2018-01-26T21:13:48.920Z,24.40
2018-01-26T21:16:17.341Z,26.03
2018-01-26T21:18:45.815Z,26.57
2018-01-26T21:21:14.229Z,25.87
2018-01-26T21:23:42.656Z,25.90
2018-01-26T21:26:11.109Z,27.97
2018-01-26T21:28:39.542Z,30.37
2018-01-26T21:31:07.951Z,37.00
2018-01-26T21:33:36.412Z,38.70
2018-01-26T21:36:04.827Z,31.73
2018-01-26T21:38:33.220Z,28.70
2018-01-26T21:41:01.661Z,25.10
2018-01-26T21:43:30.049Z,25.53
2018-01-26T21:45:58.433Z,24.07
2018-01-26T21:48:26.897Z,25.27
2018-01-26T21:50:55.317Z,24.00
2018-01-26T21:53:23.730Z,23.43
2018-01-26T21:55:52.183Z,23.03
2018-01-26T21:58:20.598Z,22.43
2018-01-26T22:00:48.996Z,22.30
2018-01-26T22:03:17.518Z,23.33
2018-01-26T22:05:45.969Z,23.33
2018-01-26T22:08:14.426Z,26.10
2018-01-26T22:10:42.889Z,25.67
2018-01-26T22:13:11.331Z,27.17
2018-01-26T22:15:39.729Z,26.30
2018-01-26T22:18:08.196Z,26.60
2018-01-26T22:20:36.620Z,25.13
2018-01-26T22:23:05.009Z,23.87
2018-01-26T22:25:33.461Z,23.80
2018-01-26T22:28:01.881Z,24.17
2018-01-26T22:30:30.296Z,23.57
2018-01-26T22:32:58.776Z,24.80
2018-01-26T22:35:27.188Z,25.03
2018-01-26T22:37:55.590Z,25.10
2018-01-26T22:40:24.026Z,23.63
2018-01-26T22:42:52.460Z,23.53
2018-01-26T22:45:20.849Z,26.23
2018-01-26T22:47:49.309Z,25.77
2018-01-26T22:50:17.714Z,24.10
2018-01-26T22:52:46.119Z,24.27
2018-01-26T22:55:14.579Z,24.07
2018-01-26T22:57:43.006Z,25.13
2018-01-26T23:00:11.434Z,26.93
2018-01-26T23:02:39.866Z,25.30
2018-01-26T23:05:08.323Z,27.97
2018-01-26T23:07:36.728Z,26.00
2018-01-26T23:10:05.177Z,26.03
2018-01-26T23:12:33.566Z,24.10
2018-01-26T23:15:01.958Z,28.07
2018-01-26T23:17:30.404Z,24.97
2018-01-26T23:19:58.812Z,26.20
2018-01-26T23:22:27.256Z,24.13
2018-01-26T23:24:55.702Z,24.70
2018-01-26T23:27:24.093Z,28.70
2018-01-26T23:29:52.548Z,28.33
2018-01-26T23:32:21.022Z,29.33
2018-01-26T23:34:49.444Z,23.27
2018-01-26T23:37:17.850Z,27.70
2018-01-26T23:39:46.305Z,28.13
2018-01-26T23:42:14.706Z,27.37
2018-01-26T23:44:43.107Z,27.60
2018-01-26T23:47:11.587Z,26.67
2018-01-26T23:49:39.997Z,26.27
2018-01-26T23:52:08.412Z,28.80
2018-01-26T23:54:36.878Z,28.47
2018-01-26T23:57:05.305Z,29.47
2018-01-26T23:59:33.712Z,29.87
